sensor_id;sensor_type;location;lat;lon;timestamp;temperature;humidity
50067;DHT22;35952;52.524;13.340;2023-01-29T00:01:29;0.80;99.90
50067;DHT22;35952;52.524;13.340;2023-01-29T00:03:55;0.70;99.90
50067;DHT22;35952;52.524;13.340;2023-01-29T00:06:21;0.90;99.90
50067;DHT22;35952;52.524;13.340;2023-01-29T00:08:48;0.90;99.90
50067;DHT22;35952;52.524;13.340;2023-01-29T00:11:14;0.90;99.90
50067;DHT22;35952;52.524;13.340;2023-01-29T00:13:41;1.00;99.90
50067;DHT22;35952;52.524;13.340;2023-01-29T00:16:07;1.00;99.90
50067;DHT22;35952;52.524;13.340;2023-01-29T00:18:32;1.00;99.90
50067;DHT22;35952;52.524;13.340;2023-01-29T00:20:58;1.00;99.90
50067;DHT22;35952;52.524;13.340;2023-01-29T00:23:23;1.00;99.90
50067;DHT22;35952;52.524;13.340;2023-01-29T00:25:49;1.00;99.90
50067;DHT22;35952;52.524;13.340;2023-01-29T00:28:15;0.80;99.90
50067;DHT22;35952;52.524;13.340;2023-01-29T00:30:40;0.80;99.90
50067;DHT22;35952;52.524;13.340;2023-01-29T00:33:06;0.90;99.90
50067;DHT22;35952;52.524;13.340;2023-01-29T00:35:32;1.00;99.90
50067;DHT22;35952;52.524;13.340;2023-01-29T00:37:58;1.00;99.90
50067;DHT22;35952;52.524;13.340;2023-01-29T00:40:25;1.00;99.90
50067;DHT22;35952;52.524;13.340;2023-01-29T00:42:50;1.00;99.90
50067;DHT22;35952;52.524;13.340;2023-01-29T00:45:35;1.00;99.90
50067;DHT22;35952;52.524;13.340;2023-01-29T00:48:02;1.00;99.90
50067;DHT22;35952;52.524;13.340;2023-01-29T00:50:28;1.10;99.90
50067;DHT22;35952;52.524;13.340;2023-01-29T00:52:54;0.90;99.90
50067;DHT22;35952;52.524;13.340;2023-01-29T00:55:20;0.90;99.90
50067;DHT22;35952;52.524;13.340;2023-01-29T00:57:45;0.90;99.90
50067;DHT22;35952;52.524;13.340;2023-01-29T01:00:14;0.90;99.90
50067;DHT22;35952;52.524;13.340;2023-01-29T01:02:40;1.00;99.90
50067;DHT22;35952;52.524;13.340;2023-01-29T01:05:38;1.10;99.90
50067;DHT22;35952;52.524;13.340;2023-01-29T01:08:04;1.10;99.90
50067;DHT22;35952;52.524;13.340;2023-01-29T01:10:58;1.00;99.90
50067;DHT22;35952;52.524;13.340;2023-01-29T01:13:23;0.90;99.90
50067;DHT22;35952;52.524;13.340;2023-01-29T01:15:49;1.00;99.90
50067;DHT22;35952;52.524;13.340;2023-01-29T01:18:15;0.90;99.90
50067;DHT22;35952;52.524;13.340;2023-01-29T01:20:40;1.00;99.90
50067;DHT22;35952;52.524;13.340;2023-01-29T01:23:06;1.00;99.90
50067;DHT22;35952;52.524;13.340;2023-01-29T01:25:32;1.00;99.90
50067;DHT22;35952;52.524;13.340;2023-01-29T01:27:58;1.00;99.90
50067;DHT22;35952;52.524;13.340;2023-01-29T01:30:24;1.00;99.90
50067;DHT22;35952;52.524;13.340;2023-01-29T01:32:51;1.00;99.90
50067;DHT22;35952;52.524;13.340;2023-01-29T01:35:16;1.00;99.90
50067;DHT22;35952;52.524;13.340;2023-01-29T01:37:42;1.00;99.90
50067;DHT22;35952;52.524;13.340;2023-01-29T01:40:13;1.00;99.90
50067;DHT22;35952;52.524;13.340;2023-01-29T01:42:49;1.00;99.90
50067;DHT22;35952;52.524;13.340;2023-01-29T01:45:34;1.10;99.90
50067;DHT22;35952;52.524;13.340;2023-01-29T01:48:13;1.10;99.90
50067;DHT22;35952;52.524;13.340;2023-01-29T01:51:01;1.00;99.90
50067;DHT22;35952;52.524;13.340;2023-01-29T01:53:35;1.10;99.90
50067;DHT22;35952;52.524;13.340;2023-01-29T01:56:10;1.10;99.90
50067;DHT22;35952;52.524;13.340;2023-01-29T01:58:40;1.20;99.90
50067;DHT22;35952;52.524;13.340;2023-01-29T02:01:08;1.20;99.90
50067;DHT22;35952;52.524;13.340;2023-01-29T02:03:41;1.20;99.90
50067;DHT22;35952;52.524;13.340;2023-01-29T02:06:28;1.00;99.90
50067;DHT22;35952;52.524;13.340;2023-01-29T02:09:22;1.00;99.90
50067;DHT22;35952;52.524;13.340;2023-01-29T02:11:55;1.10;99.90
50067;DHT22;35952;52.524;13.340;2023-01-29T02:14:21;1.10;99.90
50067;DHT22;35952;52.524;13.340;2023-01-29T02:16:47;1.00;99.90
50067;DHT22;35952;52.524;13.340;2023-01-29T02:19:23;1.10;99.90
50067;DHT22;35952;52.524;13.340;2023-01-29T02:22:11;1.20;99.90
50067;DHT22;35952;52.524;13.340;2023-01-29T02:36:03;1.20;99.90
50067;DHT22;35952;52.524;13.340;2023-01-29T02:41:57;1.30;99.90
50067;DHT22;35952;52.524;13.340;2023-01-29T02:47:37;1.20;99.90
50067;DHT22;35952;52.524;13.340;2023-01-29T02:50:11;1.20;99.90
50067;DHT22;35952;52.524;13.340;2023-01-29T02:52:45;1.30;99.90
50067;DHT22;35952;52.524;13.340;2023-01-29T02:55:20;1.30;99.90
50067;DHT22;35952;52.524;13.340;2023-01-29T02:57:48;1.30;99.90
50067;DHT22;35952;52.524;13.340;2023-01-29T03:00:19;1.30;99.90
50067;DHT22;35952;52.524;13.340;2023-01-29T03:05:55;1.30;99.90
50067;DHT22;35952;52.524;13.340;2023-01-29T03:08:39;1.30;99.90
50067;DHT22;35952;52.524;13.340;2023-01-29T03:11:11;1.30;99.90
50067;DHT22;35952;52.524;13.340;2023-01-29T03:14:01;1.30;99.90
50067;DHT22;35952;52.524;13.340;2023-01-29T03:19:11;1.30;99.90
50067;DHT22;35952;52.524;13.340;2023-01-29T03:21:39;1.30;99.90
50067;DHT22;35952;52.524;13.340;2023-01-29T03:24:48;1.30;99.90
50067;DHT22;35952;52.524;13.340;2023-01-29T03:27:43;1.30;99.90
50067;DHT22;35952;52.524;13.340;2023-01-29T03:30:33;1.40;99.90
50067;DHT22;35952;52.524;13.340;2023-01-29T03:33:20;1.30;99.90
50067;DHT22;35952;52.524;13.340;2023-01-29T03:36:12;1.40;99.90
50067;DHT22;35952;52.524;13.340;2023-01-29T03:38:39;1.40;99.90
50067;DHT22;35952;52.524;13.340;2023-01-29T03:41:13;1.40;99.90
50067;DHT22;35952;52.524;13.340;2023-01-29T03:43:49;1.40;99.90
50067;DHT22;35952;52.524;13.340;2023-01-29T03:46:37;1.40;99.90
50067;DHT22;35952;52.524;13.340;2023-01-29T03:52:12;1.30;99.90
50067;DHT22;35952;52.524;13.340;2023-01-29T03:54:58;1.30;99.90
50067;DHT22;35952;52.524;13.340;2023-01-29T03:57:46;1.40;99.90
50067;DHT22;35952;52.524;13.340;2023-01-29T04:00:16;1.30;99.90
50067;DHT22;35952;52.524;13.340;2023-01-29T04:02:54;1.30;99.90
50067;DHT22;35952;52.524;13.340;2023-01-29T04:05:25;1.30;99.90
50067;DHT22;35952;52.524;13.340;2023-01-29T04:07:58;1.40;99.90
50067;DHT22;35952;52.524;13.340;2023-01-29T04:10:26;1.40;99.90
50067;DHT22;35952;52.524;13.340;2023-01-29T04:13:03;1.40;99.90
50067;DHT22;35952;52.524;13.340;2023-01-29T04:15:38;1.30;99.90
50067;DHT22;35952;52.524;13.340;2023-01-29T04:18:05;1.20;99.90
50067;DHT22;35952;52.524;13.340;2023-01-29T04:20:31;1.30;99.90
50067;DHT22;35952;52.524;13.340;2023-01-29T04:22:57;1.20;99.90
50067;DHT22;35952;52.524;13.340;2023-01-29T04:25:26;1.20;99.90
50067;DHT22;35952;52.524;13.340;2023-01-29T04:27:56;1.20;99.90
50067;DHT22;35952;52.524;13.340;2023-01-29T04:30:38;1.20;99.90
50067;DHT22;35952;52.524;13.340;2023-01-29T04:38:52;1.20;99.90
50067;DHT22;35952;52.524;13.340;2023-01-29T04:41:41;1.20;99.90
50067;DHT22;35952;52.524;13.340;2023-01-29T04:46:56;1.10;99.90
50067;DHT22;35952;52.524;13.340;2023-01-29T04:49:48;1.30;99.90
50067;DHT22;35952;52.524;13.340;2023-01-29T04:52:34;1.20;99.90
50067;DHT22;35952;52.524;13.340;2023-01-29T04:55:08;1.30;99.90
50067;DHT22;35952;52.524;13.340;2023-01-29T04:57:52;1.40;99.90
50067;DHT22;35952;52.524;13.340;2023-01-29T05:00:29;1.40;99.90
50067;DHT22;35952;52.524;13.340;2023-01-29T05:02:58;1.20;99.90
50067;DHT22;35952;52.524;13.340;2023-01-29T05:05:24;1.40;99.90
50067;DHT22;35952;52.524;13.340;2023-01-29T05:07:51;1.40;99.90
50067;DHT22;35952;52.524;13.340;2023-01-29T05:10:19;1.40;99.90
50067;DHT22;35952;52.524;13.340;2023-01-29T05:12:50;1.40;99.90
50067;DHT22;35952;52.524;13.340;2023-01-29T05:15:23;1.40;99.90
50067;DHT22;35952;52.524;13.340;2023-01-29T05:17:50;1.30;99.90
50067;DHT22;35952;52.524;13.340;2023-01-29T05:20:18;1.40;99.90
50067;DHT22;35952;52.524;13.340;2023-01-29T05:22:45;1.40;99.90
50067;DHT22;35952;52.524;13.340;2023-01-29T05:25:22;1.40;99.90
50067;DHT22;35952;52.524;13.340;2023-01-29T05:27:49;1.40;99.90
50067;DHT22;35952;52.524;13.340;2023-01-29T05:30:36;1.40;99.90
50067;DHT22;35952;52.524;13.340;2023-01-29T05:33:03;1.30;99.90
50067;DHT22;35952;52.524;13.340;2023-01-29T05:35:29;1.30;99.90
50067;DHT22;35952;52.524;13.340;2023-01-29T05:37:55;1.30;99.90
50067;DHT22;35952;52.524;13.340;2023-01-29T05:40:21;1.30;99.90
50067;DHT22;35952;52.524;13.340;2023-01-29T05:42:47;1.30;99.90
50067;DHT22;35952;52.524;13.340;2023-01-29T05:45:12;1.30;99.90
50067;DHT22;35952;52.524;13.340;2023-01-29T05:47:38;1.40;99.90
50067;DHT22;35952;52.524;13.340;2023-01-29T05:50:04;1.40;99.90
50067;DHT22;35952;52.524;13.340;2023-01-29T05:52:30;1.40;99.90
50067;DHT22;35952;52.524;13.340;2023-01-29T05:54:56;1.40;99.90
50067;DHT22;35952;52.524;13.340;2023-01-29T05:57:21;1.40;99.90
50067;DHT22;35952;52.524;13.340;2023-01-29T05:59:47;1.40;99.90
50067;DHT22;35952;52.524;13.340;2023-01-29T06:02:12;1.40;99.90
50067;DHT22;35952;52.524;13.340;2023-01-29T06:04:38;1.40;99.90
50067;DHT22;35952;52.524;13.340;2023-01-29T06:07:03;1.40;99.90
50067;DHT22;35952;52.524;13.340;2023-01-29T06:09:29;1.40;99.90
50067;DHT22;35952;52.524;13.340;2023-01-29T06:11:55;1.50;99.90
50067;DHT22;35952;52.524;13.340;2023-01-29T06:14:20;1.50;99.90
50067;DHT22;35952;52.524;13.340;2023-01-29T06:16:46;1.50;99.90
50067;DHT22;35952;52.524;13.340;2023-01-29T06:19:11;1.50;99.90
50067;DHT22;35952;52.524;13.340;2023-01-29T06:21:37;1.50;99.90
50067;DHT22;35952;52.524;13.340;2023-01-29T06:24:02;1.50;99.90
50067;DHT22;35952;52.524;13.340;2023-01-29T06:26:28;1.50;99.90
50067;DHT22;35952;52.524;13.340;2023-01-29T06:28:54;1.50;99.90
50067;DHT22;35952;52.524;13.340;2023-01-29T06:31:19;1.50;99.90
50067;DHT22;35952;52.524;13.340;2023-01-29T06:33:45;1.50;99.90
50067;DHT22;35952;52.524;13.340;2023-01-29T06:36:10;1.40;99.90
50067;DHT22;35952;52.524;13.340;2023-01-29T06:38:36;1.50;99.90
50067;DHT22;35952;52.524;13.340;2023-01-29T06:41:10;1.50;99.90
50067;DHT22;35952;52.524;13.340;2023-01-29T06:43:37;1.50;99.90
50067;DHT22;35952;52.524;13.340;2023-01-29T06:46:05;1.50;99.90
50067;DHT22;35952;52.524;13.340;2023-01-29T06:48:31;1.50;99.90
50067;DHT22;35952;52.524;13.340;2023-01-29T06:51:01;1.60;99.90
50067;DHT22;35952;52.524;13.340;2023-01-29T06:53:26;1.50;99.90
50067;DHT22;35952;52.524;13.340;2023-01-29T06:55:52;1.50;99.90
50067;DHT22;35952;52.524;13.340;2023-01-29T06:58:19;1.60;99.90
50067;DHT22;35952;52.524;13.340;2023-01-29T07:00:44;1.50;99.90
50067;DHT22;35952;52.524;13.340;2023-01-29T07:03:10;1.60;99.90
50067;DHT22;35952;52.524;13.340;2023-01-29T07:05:36;1.50;99.90
50067;DHT22;35952;52.524;13.340;2023-01-29T07:08:02;1.60;99.90
50067;DHT22;35952;52.524;13.340;2023-01-29T07:10:28;1.50;99.90
50067;DHT22;35952;52.524;13.340;2023-01-29T07:12:53;1.60;99.90
50067;DHT22;35952;52.524;13.340;2023-01-29T07:15:19;1.60;99.90
50067;DHT22;35952;52.524;13.340;2023-01-29T07:18:00;1.60;99.90
50067;DHT22;35952;52.524;13.340;2023-01-29T07:20:27;1.60;99.90
50067;DHT22;35952;52.524;13.340;2023-01-29T07:22:53;1.60;99.90
50067;DHT22;35952;52.524;13.340;2023-01-29T07:25:20;1.60;99.90
50067;DHT22;35952;52.524;13.340;2023-01-29T07:27:45;1.60;99.90
50067;DHT22;35952;52.524;13.340;2023-01-29T07:30:11;1.70;99.90
50067;DHT22;35952;52.524;13.340;2023-01-29T07:32:37;1.70;99.90
50067;DHT22;35952;52.524;13.340;2023-01-29T07:35:03;1.60;99.90
50067;DHT22;35952;52.524;13.340;2023-01-29T07:37:28;1.70;99.90
50067;DHT22;35952;52.524;13.340;2023-01-29T07:39:54;1.70;99.90
50067;DHT22;35952;52.524;13.340;2023-01-29T07:42:19;1.70;99.90
50067;DHT22;35952;52.524;13.340;2023-01-29T07:44:45;1.80;99.90
50067;DHT22;35952;52.524;13.340;2023-01-29T07:47:11;1.80;99.90
50067;DHT22;35952;52.524;13.340;2023-01-29T07:49:36;1.80;99.90
50067;DHT22;35952;52.524;13.340;2023-01-29T07:52:02;1.70;99.90
50067;DHT22;35952;52.524;13.340;2023-01-29T07:54:27;1.70;99.90
50067;DHT22;35952;52.524;13.340;2023-01-29T07:56:53;1.80;99.90
50067;DHT22;35952;52.524;13.340;2023-01-29T07:59:18;1.80;99.90
50067;DHT22;35952;52.524;13.340;2023-01-29T08:01:44;1.80;99.90
50067;DHT22;35952;52.524;13.340;2023-01-29T08:04:09;1.80;99.90
50067;DHT22;35952;52.524;13.340;2023-01-29T08:06:35;1.80;99.90
50067;DHT22;35952;52.524;13.340;2023-01-29T08:09:00;1.80;99.90
50067;DHT22;35952;52.524;13.340;2023-01-29T08:11:26;1.80;99.90
50067;DHT22;35952;52.524;13.340;2023-01-29T08:13:51;1.80;99.90
50067;DHT22;35952;52.524;13.340;2023-01-29T08:16:18;1.70;99.90
50067;DHT22;35952;52.524;13.340;2023-01-29T08:18:44;1.70;99.90
50067;DHT22;35952;52.524;13.340;2023-01-29T08:21:12;1.80;99.90
50067;DHT22;35952;52.524;13.340;2023-01-29T08:23:37;1.80;99.90
50067;DHT22;35952;52.524;13.340;2023-01-29T08:26:03;1.80;99.90
50067;DHT22;35952;52.524;13.340;2023-01-29T08:28:29;1.90;99.90
50067;DHT22;35952;52.524;13.340;2023-01-29T08:30:55;1.90;99.90
50067;DHT22;35952;52.524;13.340;2023-01-29T08:33:21;2.00;99.90
50067;DHT22;35952;52.524;13.340;2023-01-29T08:35:50;1.90;99.90
50067;DHT22;35952;52.524;13.340;2023-01-29T08:38:16;1.90;99.90
50067;DHT22;35952;52.524;13.340;2023-01-29T08:40:42;1.90;99.90
50067;DHT22;35952;52.524;13.340;2023-01-29T08:43:09;2.00;99.90
50067;DHT22;35952;52.524;13.340;2023-01-29T08:45:38;2.00;99.90
50067;DHT22;35952;52.524;13.340;2023-01-29T08:48:05;2.10;99.90
50067;DHT22;35952;52.524;13.340;2023-01-29T08:50:30;2.10;99.90
50067;DHT22;35952;52.524;13.340;2023-01-29T08:52:57;2.20;99.90
50067;DHT22;35952;52.524;13.340;2023-01-29T08:55:24;2.20;99.90
50067;DHT22;35952;52.524;13.340;2023-01-29T08:57:49;2.20;99.90
50067;DHT22;35952;52.524;13.340;2023-01-29T09:00:15;2.20;99.90
50067;DHT22;35952;52.524;13.340;2023-01-29T09:02:41;2.10;99.90
50067;DHT22;35952;52.524;13.340;2023-01-29T09:05:07;2.10;99.90
50067;DHT22;35952;52.524;13.340;2023-01-29T09:07:32;2.10;99.90
50067;DHT22;35952;52.524;13.340;2023-01-29T09:09:58;2.10;99.90
50067;DHT22;35952;52.524;13.340;2023-01-29T09:12:24;2.20;99.90
50067;DHT22;35952;52.524;13.340;2023-01-29T09:14:49;2.10;99.90
50067;DHT22;35952;52.524;13.340;2023-01-29T09:17:15;2.20;99.90
50067;DHT22;35952;52.524;13.340;2023-01-29T09:19:40;2.30;99.90
50067;DHT22;35952;52.524;13.340;2023-01-29T09:22:06;2.40;99.90
50067;DHT22;35952;52.524;13.340;2023-01-29T09:24:31;2.40;99.90
50067;DHT22;35952;52.524;13.340;2023-01-29T09:26:59;2.40;99.90
50067;DHT22;35952;52.524;13.340;2023-01-29T09:29:25;2.40;99.90
50067;DHT22;35952;52.524;13.340;2023-01-29T09:31:50;2.50;99.90
50067;DHT22;35952;52.524;13.340;2023-01-29T09:34:16;2.40;99.90
50067;DHT22;35952;52.524;13.340;2023-01-29T09:36:41;2.40;99.90
50067;DHT22;35952;52.524;13.340;2023-01-29T09:39:07;2.50;99.90
50067;DHT22;35952;52.524;13.340;2023-01-29T09:41:47;2.60;99.90
50067;DHT22;35952;52.524;13.340;2023-01-29T09:46:53;2.70;99.90
50067;DHT22;35952;52.524;13.340;2023-01-29T09:49:38;2.80;99.90
50067;DHT22;35952;52.524;13.340;2023-01-29T09:52:13;2.90;99.90
50067;DHT22;35952;52.524;13.340;2023-01-29T09:55:06;2.80;99.90
50067;DHT22;35952;52.524;13.340;2023-01-29T09:57:49;2.80;99.90
50067;DHT22;35952;52.524;13.340;2023-01-29T10:00:19;3.00;99.90
50067;DHT22;35952;52.524;13.340;2023-01-29T10:11:59;3.30;99.90
50067;DHT22;35952;52.524;13.340;2023-01-29T10:15:03;3.30;99.90
50067;DHT22;35952;52.524;13.340;2023-01-29T10:25:41;3.50;99.90
50067;DHT22;35952;52.524;13.340;2023-01-29T10:28:17;3.60;99.90
50067;DHT22;35952;52.524;13.340;2023-01-29T10:30:55;3.70;99.90
50067;DHT22;35952;52.524;13.340;2023-01-29T10:33:42;3.90;99.90
50067;DHT22;35952;52.524;13.340;2023-01-29T10:36:16;4.00;99.90
50067;DHT22;35952;52.524;13.340;2023-01-29T10:38:48;4.20;99.90
50067;DHT22;35952;52.524;13.340;2023-01-29T10:44:22;4.50;99.90
50067;DHT22;35952;52.524;13.340;2023-01-29T10:55:39;4.40;99.90
50067;DHT22;35952;52.524;13.340;2023-01-29T10:58:18;4.30;99.90
50067;DHT22;35952;52.524;13.340;2023-01-29T11:00:45;4.40;99.90
50067;DHT22;35952;52.524;13.340;2023-01-29T11:03:15;4.70;99.90
50067;DHT22;35952;52.524;13.340;2023-01-29T11:06:03;4.70;99.90
50067;DHT22;35952;52.524;13.340;2023-01-29T11:08:55;4.90;99.90
50067;DHT22;35952;52.524;13.340;2023-01-29T11:11:45;4.80;99.90
50067;DHT22;35952;52.524;13.340;2023-01-29T11:14:21;4.70;99.90
50067;DHT22;35952;52.524;13.340;2023-01-29T11:16:48;4.80;99.90
50067;DHT22;35952;52.524;13.340;2023-01-29T11:19:15;4.80;99.90
50067;DHT22;35952;52.524;13.340;2023-01-29T11:21:56;4.80;99.90
50067;DHT22;35952;52.524;13.340;2023-01-29T11:24:22;4.90;99.90
50067;DHT22;35952;52.524;13.340;2023-01-29T11:26:50;4.90;99.90
50067;DHT22;35952;52.524;13.340;2023-01-29T11:29:29;4.90;99.90
50067;DHT22;35952;52.524;13.340;2023-01-29T11:31:57;5.00;99.90
50067;DHT22;35952;52.524;13.340;2023-01-29T11:34:24;4.90;99.90
50067;DHT22;35952;52.524;13.340;2023-01-29T11:37:14;4.60;99.90
50067;DHT22;35952;52.524;13.340;2023-01-29T11:39:43;4.60;99.90
50067;DHT22;35952;52.524;13.340;2023-01-29T11:42:18;4.60;99.90
50067;DHT22;35952;52.524;13.340;2023-01-29T11:44:44;4.80;99.90
50067;DHT22;35952;52.524;13.340;2023-01-29T11:47:26;4.80;99.90
50067;DHT22;35952;52.524;13.340;2023-01-29T11:49:55;4.70;99.90
50067;DHT22;35952;52.524;13.340;2023-01-29T11:52:23;4.80;99.90
50067;DHT22;35952;52.524;13.340;2023-01-29T11:54:57;4.70;99.90
50067;DHT22;35952;52.524;13.340;2023-01-29T11:57:34;4.70;99.90
50067;DHT22;35952;52.524;13.340;2023-01-29T12:00:05;4.80;99.90
50067;DHT22;35952;52.524;13.340;2023-01-29T12:02:53;4.90;99.90
50067;DHT22;35952;52.524;13.340;2023-01-29T12:05:22;5.00;99.90
50067;DHT22;35952;52.524;13.340;2023-01-29T12:07:50;5.00;99.90
50067;DHT22;35952;52.524;13.340;2023-01-29T12:10:35;5.00;99.90
50067;DHT22;35952;52.524;13.340;2023-01-29T12:13:20;5.10;99.90
50067;DHT22;35952;52.524;13.340;2023-01-29T12:16:08;5.00;99.90
50067;DHT22;35952;52.524;13.340;2023-01-29T12:18:38;5.00;99.90
50067;DHT22;35952;52.524;13.340;2023-01-29T12:21:16;4.90;99.90
50067;DHT22;35952;52.524;13.340;2023-01-29T12:23:58;4.80;99.90
50067;DHT22;35952;52.524;13.340;2023-01-29T12:26:35;4.90;99.90
50067;DHT22;35952;52.524;13.340;2023-01-29T12:32:11;4.90;99.90
50067;DHT22;35952;52.524;13.340;2023-01-29T12:34:54;4.90;99.90
50067;DHT22;35952;52.524;13.340;2023-01-29T12:40:25;5.00;99.90
50067;DHT22;35952;52.524;13.340;2023-01-29T12:42:55;4.90;99.90
50067;DHT22;35952;52.524;13.340;2023-01-29T12:45:23;4.80;99.90
50067;DHT22;35952;52.524;13.340;2023-01-29T12:48:00;4.80;99.90
50067;DHT22;35952;52.524;13.340;2023-01-29T12:50:32;4.80;99.90
50067;DHT22;35952;52.524;13.340;2023-01-29T12:53:02;4.70;99.90
50067;DHT22;35952;52.524;13.340;2023-01-29T12:55:41;4.60;99.90
50067;DHT22;35952;52.524;13.340;2023-01-29T12:58:14;4.40;99.90
50067;DHT22;35952;52.524;13.340;2023-01-29T13:00:45;4.30;99.90
50067;DHT22;35952;52.524;13.340;2023-01-29T13:05:55;4.20;99.90
50067;DHT22;35952;52.524;13.340;2023-01-29T13:08:29;4.20;99.90
50067;DHT22;35952;52.524;13.340;2023-01-29T13:10:58;4.20;99.90
50067;DHT22;35952;52.524;13.340;2023-01-29T13:13:30;4.20;99.90
50067;DHT22;35952;52.524;13.340;2023-01-29T13:15:57;4.10;99.90
50067;DHT22;35952;52.524;13.340;2023-01-29T13:21:20;4.20;99.90
50067;DHT22;35952;52.524;13.340;2023-01-29T13:23:52;4.10;99.90
50067;DHT22;35952;52.524;13.340;2023-01-29T13:26:20;4.20;99.90
50067;DHT22;35952;52.524;13.340;2023-01-29T13:28:47;4.10;99.90
50067;DHT22;35952;52.524;13.340;2023-01-29T13:31:33;4.10;99.90
50067;DHT22;35952;52.524;13.340;2023-01-29T13:34:22;4.20;99.90
50067;DHT22;35952;52.524;13.340;2023-01-29T13:36:54;4.30;99.90
50067;DHT22;35952;52.524;13.340;2023-01-29T13:39:29;4.30;99.90
50067;DHT22;35952;52.524;13.340;2023-01-29T13:41:58;4.30;99.90
50067;DHT22;35952;52.524;13.340;2023-01-29T13:44:34;4.20;99.90
50067;DHT22;35952;52.524;13.340;2023-01-29T13:47:04;4.20;99.90
50067;DHT22;35952;52.524;13.340;2023-01-29T13:49:42;4.20;99.90
50067;DHT22;35952;52.524;13.340;2023-01-29T13:52:25;4.20;99.90
50067;DHT22;35952;52.524;13.340;2023-01-29T13:57:55;4.10;99.90
50067;DHT22;35952;52.524;13.340;2023-01-29T14:10:38;4.00;99.90
50067;DHT22;35952;52.524;13.340;2023-01-29T14:18:27;3.90;99.90
50067;DHT22;35952;52.524;13.340;2023-01-29T14:23:51;3.80;99.90
50067;DHT22;35952;52.524;13.340;2023-01-29T14:31:58;3.60;99.90
50067;DHT22;35952;52.524;13.340;2023-01-29T14:34:34;3.60;99.90
50067;DHT22;35952;52.524;13.340;2023-01-29T14:39:49;3.40;99.90
50067;DHT22;35952;52.524;13.340;2023-01-29T14:47:51;3.40;99.90
50067;DHT22;35952;52.524;13.340;2023-01-29T14:53:04;3.30;99.90
50067;DHT22;35952;52.524;13.340;2023-01-29T14:55:57;3.30;99.90
50067;DHT22;35952;52.524;13.340;2023-01-29T14:58:48;3.30;99.90
50067;DHT22;35952;52.524;13.340;2023-01-29T15:01:21;3.20;99.90
50067;DHT22;35952;52.524;13.340;2023-01-29T15:04:26;3.20;99.90
50067;DHT22;35952;52.524;13.340;2023-01-29T15:12:19;3.00;99.90
50067;DHT22;35952;52.524;13.340;2023-01-29T15:15:12;3.00;99.90
50067;DHT22;35952;52.524;13.340;2023-01-29T15:17:48;3.00;99.90
50067;DHT22;35952;52.524;13.340;2023-01-29T15:22:58;3.00;99.90
50067;DHT22;35952;52.524;13.340;2023-01-29T15:25:24;3.00;99.90
50067;DHT22;35952;52.524;13.340;2023-01-29T15:27:50;3.00;99.90
50067;DHT22;35952;52.524;13.340;2023-01-29T15:30:32;3.00;99.90
50067;DHT22;35952;52.524;13.340;2023-01-29T15:32:57;2.90;99.90
50067;DHT22;35952;52.524;13.340;2023-01-29T15:35:34;3.00;99.90
50067;DHT22;35952;52.524;13.340;2023-01-29T15:40:26;2.90;99.90
50067;DHT22;35952;52.524;13.340;2023-01-29T15:42:52;3.00;99.90
50067;DHT22;35952;52.524;13.340;2023-01-29T15:45:31;2.90;99.90
50067;DHT22;35952;52.524;13.340;2023-01-29T15:48:05;2.90;99.90
50067;DHT22;35952;52.524;13.340;2023-01-29T15:50:34;2.90;99.90
50067;DHT22;35952;52.524;13.340;2023-01-29T15:53:05;2.90;99.90
50067;DHT22;35952;52.524;13.340;2023-01-29T15:55:31;2.90;99.90
50067;DHT22;35952;52.524;13.340;2023-01-29T15:57:58;3.00;99.90
50067;DHT22;35952;52.524;13.340;2023-01-29T16:00:26;3.00;99.90
50067;DHT22;35952;52.524;13.340;2023-01-29T16:02:53;3.00;99.90
50067;DHT22;35952;52.524;13.340;2023-01-29T16:05:22;3.00;99.90
50067;DHT22;35952;52.524;13.340;2023-01-29T16:07:53;3.00;99.90
50067;DHT22;35952;52.524;13.340;2023-01-29T16:10:27;3.00;99.90
50067;DHT22;35952;52.524;13.340;2023-01-29T16:12:53;2.80;99.90
50067;DHT22;35952;52.524;13.340;2023-01-29T16:15:30;2.90;99.90
50067;DHT22;35952;52.524;13.340;2023-01-29T16:17:57;3.00;99.90
50067;DHT22;35952;52.524;13.340;2023-01-29T16:20:43;3.00;99.90
50067;DHT22;35952;52.524;13.340;2023-01-29T16:23:26;3.00;99.90
50067;DHT22;35952;52.524;13.340;2023-01-29T16:25:53;3.00;99.90
50067;DHT22;35952;52.524;13.340;2023-01-29T16:28:20;3.00;99.90
50067;DHT22;35952;52.524;13.340;2023-01-29T16:30:46;3.00;99.90
50067;DHT22;35952;52.524;13.340;2023-01-29T16:33:14;3.00;99.90
50067;DHT22;35952;52.524;13.340;2023-01-29T16:35:41;3.00;99.90
50067;DHT22;35952;52.524;13.340;2023-01-29T16:38:26;3.00;99.90
50067;DHT22;35952;52.524;13.340;2023-01-29T16:46:47;3.00;99.90
50067;DHT22;35952;52.524;13.340;2023-01-29T16:52:37;3.00;99.90
50067;DHT22;35952;52.524;13.340;2023-01-29T16:57:37;3.00;99.90
50067;DHT22;35952;52.524;13.340;2023-01-29T17:00:07;3.00;99.90
50067;DHT22;35952;52.524;13.340;2023-01-29T17:02:38;3.00;99.90
50067;DHT22;35952;52.524;13.340;2023-01-29T17:05:07;3.00;99.90
50067;DHT22;35952;52.524;13.340;2023-01-29T17:07:34;2.90;99.90
50067;DHT22;35952;52.524;13.340;2023-01-29T17:10:03;3.00;99.90
50067;DHT22;35952;52.524;13.340;2023-01-29T17:12:31;3.00;99.90
50067;DHT22;35952;52.524;13.340;2023-01-29T17:15:02;2.90;99.90
50067;DHT22;35952;52.524;13.340;2023-01-29T17:17:33;3.00;99.90
50067;DHT22;35952;52.524;13.340;2023-01-29T17:20:10;3.00;99.90
50067;DHT22;35952;52.524;13.340;2023-01-29T17:22:36;3.10;99.90
50067;DHT22;35952;52.524;13.340;2023-01-29T17:25:02;3.10;99.90
50067;DHT22;35952;52.524;13.340;2023-01-29T17:27:28;3.00;99.90
50067;DHT22;35952;52.524;13.340;2023-01-29T17:29:53;3.00;99.90
50067;DHT22;35952;52.524;13.340;2023-01-29T17:32:19;3.00;99.90
50067;DHT22;35952;52.524;13.340;2023-01-29T17:34:45;3.10;99.90
50067;DHT22;35952;52.524;13.340;2023-01-29T17:37:14;3.00;99.90
50067;DHT22;35952;52.524;13.340;2023-01-29T17:39:41;3.00;99.90
50067;DHT22;35952;52.524;13.340;2023-01-29T17:42:12;3.10;99.90
50067;DHT22;35952;52.524;13.340;2023-01-29T17:44:38;3.00;99.90
50067;DHT22;35952;52.524;13.340;2023-01-29T17:47:04;3.10;99.90
50067;DHT22;35952;52.524;13.340;2023-01-29T17:49:30;3.10;99.90
50067;DHT22;35952;52.524;13.340;2023-01-29T17:52:00;3.00;99.90
50067;DHT22;35952;52.524;13.340;2023-01-29T17:54:25;3.00;99.90
50067;DHT22;35952;52.524;13.340;2023-01-29T17:56:52;3.00;99.90
50067;DHT22;35952;52.524;13.340;2023-01-29T17:59:24;2.90;99.90
50067;DHT22;35952;52.524;13.340;2023-01-29T18:01:50;3.00;99.90
50067;DHT22;35952;52.524;13.340;2023-01-29T18:04:16;3.00;99.90
50067;DHT22;35952;52.524;13.340;2023-01-29T18:06:43;3.00;99.90
50067;DHT22;35952;52.524;13.340;2023-01-29T18:09:12;2.90;99.90
50067;DHT22;35952;52.524;13.340;2023-01-29T18:11:39;3.00;99.90
50067;DHT22;35952;52.524;13.340;2023-01-29T18:14:04;3.00;99.90